DLH1786 LOWS-LEBB
Flight info
| Callsign | DLH1786 |
|---|---|
| Flight time | 2h 4m |
| Altitude | 34000 |
| Route | TRAUN L856 KPT/N0438F380 L856 AKABI/N0441F390 L856 TRA DCT LUTIX DCT BENOT DCT NEMOS DCT NINTU DCT MEBAK DCT REPSI DCT LERGA DCT MINSO DCT NARAK DCT AGN DCT DIGPO/N0361F270 DCT ERAKI DCT PPN M601 CEGAM |
| Aircraft | A20N/M-SDE2E3FGHIRWXY/LB1 |
Departure
| Time | 2026-05-07 18:26 |
|---|---|
| Airport | Salzburg Airport (LOWS) |
Arrival
| Time | 2026-05-07 20:30 |
|---|---|
| Airport | Bilbao Airport (LEBB) |
| Time | Latitude | Longitude | Altitude | Speed | Heading |
|---|---|---|---|---|---|
| 2026-05-07 17:52 | 47.79176 | 13.00120 | 1425 ft | 0 kts | 103° |
| 2026-05-07 18:14 | 47.79180 | 13.00099 | 1425 ft | 2 kts | 103° |
| 2026-05-07 18:14 | 47.79183 | 13.00076 | 1425 ft | 2 kts | 103° |
| 2026-05-07 18:15 | 47.79187 | 13.00052 | 1425 ft | 2 kts | 102° |
| 2026-05-07 18:15 | 47.79191 | 13.00028 | 1425 ft | 2 kts | 103° |
| 2026-05-07 18:15 | 47.79197 | 13.00006 | 1425 ft | 2 kts | 135° |
| 2026-05-07 18:15 | 47.79209 | 12.99993 | 1425 ft | 1 kts | 155° |
| 2026-05-07 18:16 | 47.79211 | 12.99992 | 1425 ft | 0 kts | 155° |
| 2026-05-07 18:19 | 47.79203 | 12.99997 | 1425 ft | 4 kts | 156° |
| 2026-05-07 18:20 | 47.79173 | 13.00017 | 1425 ft | 6 kts | 156° |
| 2026-05-07 18:20 | 47.79127 | 13.00046 | 1425 ft | 8 kts | 156° |
| 2026-05-07 18:20 | 47.79068 | 13.00083 | 1425 ft | 10 kts | 157° |
| 2026-05-07 18:20 | 47.78997 | 13.00128 | 1425 ft | 12 kts | 157° |
| 2026-05-07 18:21 | 47.78956 | 13.00224 | 1425 ft | 11 kts | 94° |
| 2026-05-07 18:21 | 47.78951 | 13.00342 | 1424 ft | 12 kts | 103° |
| 2026-05-07 18:21 | 47.78882 | 13.00412 | 1423 ft | 12 kts | 156° |
| 2026-05-07 18:21 | 47.78807 | 13.00459 | 1423 ft | 12 kts | 157° |
| 2026-05-07 18:22 | 47.78731 | 13.00507 | 1423 ft | 11 kts | 157° |
| 2026-05-07 18:22 | 47.78685 | 13.00536 | 1424 ft | 11 kts | 157° |
| 2026-05-07 18:22 | 47.78572 | 13.00607 | 1425 ft | 18 kts | 157° |
| 2026-05-07 18:22 | 47.78434 | 13.00694 | 1424 ft | 25 kts | 157° |
| 2026-05-07 18:23 | 47.78269 | 13.00798 | 1424 ft | 18 kts | 156° |
| 2026-05-07 18:23 | 47.78185 | 13.00921 | 1425 ft | 18 kts | 107° |
| 2026-05-07 18:23 | 47.78191 | 13.01004 | 1421 ft | 0 kts | 70° |
| 2026-05-07 18:23 | 47.78195 | 13.01020 | 1421 ft | 4 kts | 66° |
| 2026-05-07 18:24 | 47.78222 | 13.01066 | 1422 ft | 7 kts | 27° |
| 2026-05-07 18:24 | 47.78282 | 13.01055 | 1421 ft | 11 kts | 340° |
| 2026-05-07 18:24 | 47.78370 | 13.01005 | 1419 ft | 16 kts | 336° |
| 2026-05-07 18:24 | 47.78455 | 13.00950 | 1422 ft | 0 kts | 336° |
| 2026-05-07 18:25 | 47.78463 | 13.00945 | 1421 ft | 11 kts | 336° |
| 2026-05-07 18:25 | 47.78763 | 13.00757 | 1424 ft | 81 kts | 337° |
| 2026-05-07 18:25 | 47.79497 | 13.00290 | 1434 ft | 146 kts | 338° |
| 2026-05-07 18:26 | 47.80462 | 12.99667 | 1968 ft | 149 kts | 338° |
| 2026-05-07 18:26 | 47.81398 | 12.99080 | 2786 ft | 142 kts | 334° |
| 2026-05-07 18:26 | 47.82278 | 12.98347 | 3394 ft | 158 kts | 316° |
| 2026-05-07 18:26 | 47.83013 | 12.96934 | 3702 ft | 189 kts | 301° |
| 2026-05-07 18:27 | 47.83711 | 12.95121 | 4105 ft | 212 kts | 298° |
| 2026-05-07 18:27 | 47.84479 | 12.93048 | 4462 ft | 245 kts | 298° |
| 2026-05-07 18:27 | 47.85335 | 12.90772 | 5282 ft | 256 kts | 298° |
| 2026-05-07 18:27 | 47.85919 | 12.89238 | 5919 ft | 259 kts | 299° |
| 2026-05-07 18:28 | 47.87114 | 12.86117 | 6771 ft | 264 kts | 299° |
| 2026-05-07 18:28 | 47.88031 | 12.83734 | 7020 ft | 266 kts | 299° |
| 2026-05-07 18:28 | 47.88952 | 12.81339 | 7049 ft | 266 kts | 299° |
| 2026-05-07 18:28 | 47.89876 | 12.78937 | 7054 ft | 267 kts | 299° |
| 2026-05-07 18:29 | 47.90798 | 12.76540 | 7047 ft | 267 kts | 299° |
| 2026-05-07 18:29 | 47.91714 | 12.74138 | 7049 ft | 266 kts | 298° |
| 2026-05-07 18:29 | 47.92620 | 12.71729 | 7053 ft | 266 kts | 298° |
| 2026-05-07 18:29 | 47.93523 | 12.69322 | 7050 ft | 266 kts | 298° |
| 2026-05-07 18:30 | 47.94425 | 12.66914 | 7051 ft | 266 kts | 298° |
| 2026-05-07 18:30 | 47.95326 | 12.64503 | 7050 ft | 266 kts | 298° |
| 2026-05-07 18:30 | 47.96209 | 12.62126 | 7052 ft | 265 kts | 296° |
| 2026-05-07 18:30 | 47.96918 | 12.59602 | 7056 ft | 263 kts | 285° |
| 2026-05-07 18:31 | 47.97201 | 12.56912 | 7094 ft | 263 kts | 271° |
| 2026-05-07 18:31 | 47.97127 | 12.54164 | 7656 ft | 266 kts | 265° |
| 2026-05-07 18:31 | 47.96921 | 12.51423 | 8757 ft | 264 kts | 263° |
| 2026-05-07 18:31 | 47.96659 | 12.48704 | 9850 ft | 266 kts | 262° |
| 2026-05-07 18:32 | 47.96370 | 12.45938 | 10618 ft | 278 kts | 261° |
| 2026-05-07 18:32 | 47.96061 | 12.42976 | 11076 ft | 299 kts | 261° |
| 2026-05-07 18:32 | 47.95745 | 12.39850 | 11851 ft | 308 kts | 262° |
| 2026-05-07 18:32 | 47.95433 | 12.36666 | 12786 ft | 313 kts | 262° |
| 2026-05-07 18:33 | 47.95123 | 12.33424 | 13742 ft | 318 kts | 262° |
| 2026-05-07 18:33 | 47.94813 | 12.30143 | 14597 ft | 322 kts | 262° |
| 2026-05-07 18:33 | 47.94503 | 12.26851 | 15428 ft | 326 kts | 262° |
| 2026-05-07 18:33 | 47.94186 | 12.23479 | 16272 ft | 330 kts | 263° |
| 2026-05-07 18:34 | 47.93863 | 12.20060 | 17103 ft | 334 kts | 263° |
| 2026-05-07 18:34 | 47.93533 | 12.16601 | 17918 ft | 338 kts | 263° |
| 2026-05-07 18:34 | 47.93196 | 12.13105 | 18663 ft | 343 kts | 263° |
| 2026-05-07 18:34 | 47.92854 | 12.09565 | 19337 ft | 347 kts | 263° |
| 2026-05-07 18:35 | 47.92505 | 12.05981 | 20023 ft | 351 kts | 263° |
| 2026-05-07 18:35 | 47.92151 | 12.02362 | 20714 ft | 355 kts | 263° |
| 2026-05-07 18:35 | 47.91793 | 11.98711 | 21406 ft | 359 kts | 263° |
| 2026-05-07 18:35 | 47.91429 | 11.95009 | 22077 ft | 362 kts | 263° |
| 2026-05-07 18:36 | 47.91061 | 11.91272 | 22732 ft | 366 kts | 262° |
| 2026-05-07 18:36 | 47.90693 | 11.87553 | 23361 ft | 369 kts | 262° |
| 2026-05-07 18:36 | 47.90316 | 11.83752 | 23921 ft | 373 kts | 262° |
| 2026-05-07 18:36 | 47.89933 | 11.79906 | 24444 ft | 376 kts | 262° |
| 2026-05-07 18:37 | 47.89548 | 11.76036 | 24949 ft | 379 kts | 262° |
| 2026-05-07 18:37 | 47.89160 | 11.72135 | 25450 ft | 382 kts | 262° |
| 2026-05-07 18:37 | 47.88768 | 11.68205 | 25957 ft | 385 kts | 262° |
| 2026-05-07 18:37 | 47.88372 | 11.64252 | 26434 ft | 387 kts | 262° |
| 2026-05-07 18:38 | 47.87973 | 11.60271 | 26912 ft | 390 kts | 262° |
| 2026-05-07 18:38 | 47.87569 | 11.56258 | 27376 ft | 392 kts | 262° |
| 2026-05-07 18:38 | 47.87161 | 11.52225 | 27830 ft | 395 kts | 262° |
| 2026-05-07 18:38 | 47.86749 | 11.48165 | 28279 ft | 398 kts | 262° |
| 2026-05-07 18:39 | 47.86333 | 11.44079 | 28697 ft | 400 kts | 262° |
| 2026-05-07 18:39 | 47.85913 | 11.39969 | 29151 ft | 402 kts | 262° |
| 2026-05-07 18:39 | 47.85488 | 11.35834 | 29576 ft | 405 kts | 262° |
| 2026-05-07 18:39 | 47.85066 | 11.31736 | 29983 ft | 407 kts | 262° |
| 2026-05-07 18:40 | 47.84633 | 11.27556 | 30340 ft | 409 kts | 262° |
| 2026-05-07 18:40 | 47.84197 | 11.23363 | 30698 ft | 411 kts | 262° |
| 2026-05-07 18:40 | 47.83759 | 11.19154 | 31057 ft | 412 kts | 262° |
| 2026-05-07 18:40 | 47.83316 | 11.14927 | 31406 ft | 414 kts | 262° |
| 2026-05-07 18:41 | 47.82871 | 11.10693 | 31795 ft | 414 kts | 262° |
| 2026-05-07 18:41 | 47.82425 | 11.06471 | 32278 ft | 411 kts | 261° |
| 2026-05-07 18:41 | 47.82128 | 11.03685 | 32601 ft | 410 kts | 261° |
| 2026-05-07 18:41 | 47.81531 | 10.98100 | 33191 ft | 408 kts | 262° |
| 2026-05-07 18:42 | 47.81234 | 10.95342 | 33445 ft | 408 kts | 262° |
| 2026-05-07 18:42 | 47.80786 | 10.91186 | 33862 ft | 407 kts | 261° |
| 2026-05-07 18:42 | 47.80335 | 10.87012 | 34026 ft | 409 kts | 261° |
| 2026-05-07 18:43 | 47.79429 | 10.78671 | 34039 ft | 408 kts | 261° |
| 2026-05-07 18:43 | 47.78519 | 10.70348 | 34034 ft | 407 kts | 261° |
| 2026-05-07 18:44 | 47.77609 | 10.62081 | 34055 ft | 408 kts | 261° |
| 2026-05-07 18:44 | 47.76688 | 10.53774 | 34050 ft | 407 kts | 261° |
| 2026-05-07 18:45 | 47.75761 | 10.45466 | 34042 ft | 408 kts | 261° |
| 2026-05-07 18:45 | 47.74835 | 10.37151 | 34031 ft | 407 kts | 263° |
| 2026-05-07 18:46 | 47.74443 | 10.28804 | 34045 ft | 404 kts | 268° |
| 2026-05-07 18:46 | 47.74232 | 10.20451 | 34044 ft | 404 kts | 268° |
| 2026-05-07 18:47 | 47.74054 | 10.12105 | 34035 ft | 404 kts | 268° |
| 2026-05-07 18:47 | 47.73866 | 10.03757 | 34046 ft | 404 kts | 268° |
| 2026-05-07 18:48 | 47.73664 | 9.95416 | 34039 ft | 404 kts | 268° |
| 2026-05-07 18:48 | 47.73454 | 9.87111 | 34028 ft | 404 kts | 268° |
| 2026-05-07 18:49 | 47.73327 | 9.82198 | 34034 ft | 404 kts | 268° |
| 2026-05-07 18:50 | 47.73233 | 9.78573 | 34021 ft | 404 kts | 268° |
| 2026-05-07 18:50 | 47.73011 | 9.70225 | 34022 ft | 404 kts | 268° |
| 2026-05-07 18:51 | 47.72782 | 9.61887 | 34017 ft | 404 kts | 268° |
| 2026-05-07 18:51 | 47.72547 | 9.53591 | 34019 ft | 404 kts | 268° |
| 2026-05-07 18:52 | 47.72303 | 9.45240 | 34020 ft | 404 kts | 268° |
| 2026-05-07 18:52 | 47.72066 | 9.36892 | 34047 ft | 404 kts | 268° |
| 2026-05-07 18:53 | 47.71842 | 9.28610 | 34039 ft | 404 kts | 268° |
| 2026-05-07 18:53 | 47.71608 | 9.20249 | 34041 ft | 406 kts | 268° |
| 2026-05-07 18:54 | 47.71349 | 9.11859 | 34045 ft | 407 kts | 268° |
| 2026-05-07 18:54 | 47.71076 | 9.03468 | 34044 ft | 407 kts | 267° |
| 2026-05-07 18:55 | 47.70795 | 8.95078 | 34048 ft | 407 kts | 267° |
| 2026-05-07 18:55 | 47.70510 | 8.86688 | 34044 ft | 407 kts | 267° |
| 2026-05-07 18:56 | 47.70219 | 8.78299 | 34047 ft | 407 kts | 267° |
| 2026-05-07 18:56 | 47.69923 | 8.69946 | 34049 ft | 408 kts | 267° |
| 2026-05-07 18:57 | 47.69620 | 8.61541 | 34046 ft | 408 kts | 267° |
| 2026-05-07 18:57 | 47.69310 | 8.53136 | 34046 ft | 407 kts | 267° |
| 2026-05-07 18:58 | 47.68427 | 8.44866 | 34048 ft | 406 kts | 253° |
| 2026-05-07 18:58 | 47.65907 | 8.37367 | 34046 ft | 410 kts | 239° |
| 2026-05-07 18:59 | 47.62663 | 8.30434 | 34044 ft | 412 kts | 236° |
| 2026-05-07 18:59 | 47.59268 | 8.23572 | 34045 ft | 413 kts | 236° |
| 2026-05-07 19:00 | 47.55878 | 8.16709 | 34043 ft | 412 kts | 236° |
| 2026-05-07 19:00 | 47.52511 | 8.09836 | 34046 ft | 412 kts | 236° |
| 2026-05-07 19:01 | 47.49156 | 8.02974 | 34039 ft | 410 kts | 236° |
| 2026-05-07 19:01 | 47.45812 | 7.96150 | 34039 ft | 409 kts | 236° |
| 2026-05-07 19:02 | 47.42469 | 7.89342 | 34035 ft | 409 kts | 236° |
| 2026-05-07 19:02 | 47.39143 | 7.82589 | 34040 ft | 409 kts | 236° |
| 2026-05-07 19:03 | 47.35787 | 7.75793 | 34033 ft | 410 kts | 236° |
| 2026-05-07 19:03 | 47.32430 | 7.69012 | 34030 ft | 409 kts | 236° |
| 2026-05-07 19:04 | 47.29089 | 7.62283 | 34035 ft | 405 kts | 236° |
| 2026-05-07 19:04 | 47.25759 | 7.55588 | 34036 ft | 405 kts | 236° |
| 2026-05-07 19:05 | 47.22427 | 7.48904 | 34021 ft | 405 kts | 236° |
| 2026-05-07 19:05 | 47.19113 | 7.42275 | 34023 ft | 405 kts | 236° |
| 2026-05-07 19:06 | 47.15760 | 7.35647 | 34019 ft | 403 kts | 235° |
| 2026-05-07 19:06 | 47.10526 | 7.25959 | 34021 ft | 403 kts | 234° |
| 2026-05-07 19:07 | 47.07016 | 7.19553 | 34034 ft | 403 kts | 234° |
| 2026-05-07 19:07 | 47.03515 | 7.13148 | 34046 ft | 402 kts | 234° |
| 2026-05-07 19:08 | 47.00011 | 7.06737 | 34016 ft | 402 kts | 234° |
| 2026-05-07 19:08 | 46.96533 | 7.00382 | 34004 ft | 403 kts | 234° |
| 2026-05-07 19:09 | 46.93026 | 6.93989 | 34021 ft | 403 kts | 233° |
| 2026-05-07 19:09 | 46.89511 | 6.87602 | 34022 ft | 403 kts | 233° |
| 2026-05-07 19:10 | 46.85979 | 6.81210 | 34019 ft | 403 kts | 233° |
| 2026-05-07 19:10 | 46.82449 | 6.74838 | 34019 ft | 403 kts | 233° |
| 2026-05-07 19:11 | 46.78915 | 6.68470 | 34025 ft | 404 kts | 233° |
| 2026-05-07 19:11 | 46.75395 | 6.62142 | 34021 ft | 404 kts | 233° |
| 2026-05-07 19:12 | 46.71846 | 6.55778 | 34025 ft | 405 kts | 233° |
| 2026-05-07 19:12 | 46.68289 | 6.49413 | 34034 ft | 405 kts | 233° |
| 2026-05-07 19:13 | 46.64724 | 6.43050 | 34031 ft | 406 kts | 233° |
| 2026-05-07 19:13 | 46.61156 | 6.36695 | 34025 ft | 406 kts | 233° |
| 2026-05-07 19:14 | 46.57578 | 6.30337 | 34033 ft | 406 kts | 233° |
| 2026-05-07 19:14 | 46.54019 | 6.24027 | 34025 ft | 406 kts | 232° |
| 2026-05-07 19:15 | 46.50436 | 6.17690 | 34024 ft | 406 kts | 232° |
| 2026-05-07 19:15 | 46.46844 | 6.11350 | 34026 ft | 406 kts | 232° |
| 2026-05-07 19:16 | 46.43253 | 6.05028 | 34024 ft | 406 kts | 232° |
| 2026-05-07 19:16 | 46.39661 | 5.98719 | 34000 ft | 406 kts | 232° |
| 2026-05-07 19:17 | 46.36089 | 5.92457 | 34002 ft | 406 kts | 232° |
| 2026-05-07 19:17 | 46.32484 | 5.86154 | 34001 ft | 406 kts | 232° |
| 2026-05-07 19:18 | 46.28879 | 5.79864 | 34002 ft | 405 kts | 232° |
| 2026-05-07 19:18 | 46.25276 | 5.73592 | 34006 ft | 405 kts | 232° |
| 2026-05-07 19:19 | 46.21669 | 5.67327 | 34003 ft | 405 kts | 232° |
| 2026-05-07 19:19 | 46.18089 | 5.61122 | 34009 ft | 405 kts | 232° |
| 2026-05-07 19:20 | 46.14553 | 5.54802 | 34008 ft | 404 kts | 235° |
| 2026-05-07 19:20 | 46.11298 | 5.48186 | 33999 ft | 405 kts | 236° |
| 2026-05-07 19:21 | 46.08096 | 5.41515 | 34000 ft | 404 kts | 236° |
| 2026-05-07 19:21 | 46.04899 | 5.34839 | 33998 ft | 404 kts | 236° |
| 2026-05-07 19:22 | 46.01699 | 5.28186 | 33999 ft | 404 kts | 236° |
| 2026-05-07 19:22 | 45.98511 | 5.21586 | 33996 ft | 404 kts | 236° |
| 2026-05-07 19:23 | 45.95299 | 5.14955 | 33994 ft | 404 kts | 236° |
| 2026-05-07 19:23 | 45.92883 | 5.09979 | 33993 ft | 404 kts | 236° |
| 2026-05-07 19:24 | 45.90561 | 5.05203 | 33993 ft | 405 kts | 236° |
| 2026-05-07 19:24 | 45.87334 | 4.98580 | 33985 ft | 404 kts | 236° |
| 2026-05-07 19:25 | 45.84130 | 4.92016 | 33993 ft | 404 kts | 236° |
| 2026-05-07 19:25 | 45.80899 | 4.85417 | 33994 ft | 404 kts | 236° |
| 2026-05-07 19:26 | 45.77666 | 4.78826 | 33994 ft | 404 kts | 236° |
| 2026-05-07 19:26 | 45.74433 | 4.72252 | 33997 ft | 404 kts | 235° |
| 2026-05-07 19:27 | 45.71194 | 4.65680 | 34012 ft | 404 kts | 235° |
| 2026-05-07 19:27 | 45.67950 | 4.59113 | 33994 ft | 404 kts | 235° |
| 2026-05-07 19:28 | 45.64708 | 4.52562 | 34001 ft | 403 kts | 235° |
| 2026-05-07 19:28 | 45.61484 | 4.46063 | 33997 ft | 403 kts | 235° |
| 2026-05-07 19:29 | 45.58236 | 4.39530 | 33994 ft | 403 kts | 235° |
| 2026-05-07 19:29 | 45.54986 | 4.33008 | 33993 ft | 403 kts | 235° |
| 2026-05-07 19:30 | 45.51731 | 4.26491 | 33998 ft | 403 kts | 235° |
| 2026-05-07 19:30 | 45.48465 | 4.19974 | 33993 ft | 404 kts | 234° |
| 2026-05-07 19:31 | 45.45195 | 4.13465 | 33998 ft | 403 kts | 234° |
| 2026-05-07 19:31 | 45.41924 | 4.06970 | 34002 ft | 403 kts | 234° |
| 2026-05-07 19:32 | 45.38674 | 4.00529 | 34004 ft | 403 kts | 234° |
| 2026-05-07 19:32 | 45.35399 | 3.94055 | 34014 ft | 403 kts | 234° |
| 2026-05-07 19:33 | 45.32118 | 3.87583 | 34016 ft | 403 kts | 234° |
| 2026-05-07 19:33 | 45.28833 | 3.81115 | 34015 ft | 403 kts | 234° |
| 2026-05-07 19:34 | 45.25549 | 3.74653 | 34007 ft | 404 kts | 234° |
| 2026-05-07 19:34 | 45.22321 | 3.68141 | 34007 ft | 404 kts | 235° |
| 2026-05-07 19:35 | 45.19131 | 3.61640 | 34009 ft | 404 kts | 235° |
| 2026-05-07 19:35 | 45.15919 | 3.55114 | 34006 ft | 404 kts | 235° |
| 2026-05-07 19:36 | 45.12698 | 3.48599 | 33998 ft | 404 kts | 234° |
| 2026-05-07 19:36 | 45.09468 | 3.42087 | 34000 ft | 404 kts | 234° |
| 2026-05-07 19:37 | 45.06238 | 3.35593 | 34001 ft | 404 kts | 234° |
| 2026-05-07 19:37 | 45.03002 | 3.29101 | 34003 ft | 404 kts | 234° |
| 2026-05-07 19:38 | 44.99784 | 3.22658 | 34001 ft | 404 kts | 234° |
| 2026-05-07 19:38 | 44.96542 | 3.16181 | 34001 ft | 404 kts | 234° |
| 2026-05-07 19:39 | 44.93294 | 3.09707 | 34002 ft | 403 kts | 234° |
| 2026-05-07 19:39 | 44.90574 | 3.04298 | 34013 ft | 413 kts | 234° |
| 2026-05-07 19:40 | 44.86713 | 2.96634 | 34004 ft | 407 kts | 234° |
| 2026-05-07 19:40 | 44.83511 | 2.90137 | 34002 ft | 406 kts | 236° |
| 2026-05-07 19:41 | 44.80435 | 2.83469 | 33996 ft | 406 kts | 237° |
| 2026-05-07 19:41 | 44.77386 | 2.76778 | 33986 ft | 406 kts | 237° |
| 2026-05-07 19:42 | 44.74322 | 2.70107 | 33981 ft | 406 kts | 236° |
| 2026-05-07 19:42 | 44.71241 | 2.63448 | 33977 ft | 407 kts | 236° |
| 2026-05-07 19:43 | 44.68153 | 2.56801 | 33979 ft | 409 kts | 236° |
| 2026-05-07 19:43 | 44.65039 | 2.50110 | 33991 ft | 409 kts | 236° |
| 2026-05-07 19:44 | 44.62448 | 2.44556 | 33990 ft | 409 kts | 236° |
| 2026-05-07 19:44 | 44.59330 | 2.37885 | 33989 ft | 409 kts | 236° |
| 2026-05-07 19:45 | 44.56206 | 2.31218 | 33989 ft | 409 kts | 236° |
| 2026-05-07 19:45 | 44.53076 | 2.24550 | 33987 ft | 410 kts | 236° |
| 2026-05-07 19:46 | 44.49932 | 2.17870 | 33983 ft | 411 kts | 236° |
| 2026-05-07 19:46 | 44.46777 | 2.11183 | 33983 ft | 411 kts | 236° |
| 2026-05-07 19:47 | 44.43622 | 2.04512 | 33980 ft | 411 kts | 236° |
| 2026-05-07 19:47 | 44.40482 | 1.97885 | 33972 ft | 411 kts | 235° |
| 2026-05-07 19:48 | 44.37324 | 1.91235 | 33973 ft | 409 kts | 235° |
| 2026-05-07 19:48 | 44.34172 | 1.84615 | 33971 ft | 409 kts | 235° |
| 2026-05-07 19:49 | 44.31012 | 1.77993 | 33968 ft | 409 kts | 235° |
| 2026-05-07 19:49 | 44.27881 | 1.71351 | 33969 ft | 409 kts | 236° |
| 2026-05-07 19:50 | 44.24810 | 1.64655 | 33966 ft | 409 kts | 236° |
| 2026-05-07 19:50 | 44.21767 | 1.58007 | 33966 ft | 409 kts | 236° |
| 2026-05-07 19:51 | 44.18698 | 1.51334 | 33968 ft | 408 kts | 236° |
| 2026-05-07 19:51 | 44.15619 | 1.44670 | 33964 ft | 409 kts | 236° |
| 2026-05-07 19:52 | 44.12534 | 1.38010 | 33959 ft | 409 kts | 236° |
| 2026-05-07 19:52 | 44.09442 | 1.31353 | 33956 ft | 409 kts | 236° |
| 2026-05-07 19:53 | 44.06351 | 1.24710 | 33960 ft | 409 kts | 236° |
| 2026-05-07 19:53 | 44.03273 | 1.18110 | 33955 ft | 409 kts | 236° |
| 2026-05-07 19:54 | 44.00180 | 1.11493 | 33961 ft | 408 kts | 236° |
| 2026-05-07 19:54 | 43.97088 | 1.04894 | 33958 ft | 408 kts | 235° |
| 2026-05-07 19:55 | 43.93989 | 0.98295 | 33957 ft | 408 kts | 235° |
| 2026-05-07 19:55 | 43.90883 | 0.91698 | 33956 ft | 408 kts | 235° |
| 2026-05-07 19:56 | 43.87520 | 0.85389 | 33958 ft | 406 kts | 229° |
| 2026-05-07 19:56 | 43.83807 | 0.79482 | 33956 ft | 406 kts | 227° |
| 2026-05-07 19:57 | 43.80034 | 0.73669 | 33961 ft | 405 kts | 227° |
| 2026-05-07 19:57 | 43.76279 | 0.67911 | 33963 ft | 405 kts | 227° |
| 2026-05-07 19:58 | 43.72505 | 0.62115 | 33954 ft | 406 kts | 227° |
| 2026-05-07 19:58 | 43.68732 | 0.56320 | 33951 ft | 406 kts | 227° |
| 2026-05-07 19:59 | 43.64957 | 0.50530 | 33956 ft | 405 kts | 227° |
| 2026-05-07 19:59 | 43.61182 | 0.44753 | 33956 ft | 405 kts | 227° |
| 2026-05-07 20:00 | 43.57410 | 0.38995 | 33957 ft | 404 kts | 227° |
| 2026-05-07 20:00 | 43.53661 | 0.33281 | 33955 ft | 406 kts | 228° |
| 2026-05-07 20:01 | 43.50416 | 0.26919 | 33958 ft | 408 kts | 239° |
| 2026-05-07 20:01 | 43.47709 | 0.20049 | 33945 ft | 408 kts | 241° |
| 2026-05-07 20:02 | 43.45105 | 0.13099 | 33955 ft | 408 kts | 242° |
| 2026-05-07 20:02 | 43.42502 | 0.06147 | 33951 ft | 408 kts | 242° |
| 2026-05-07 20:03 | 43.39884 | -0.00775 | 33960 ft | 408 kts | 242° |
| 2026-05-07 20:03 | 43.37261 | -0.07664 | 33951 ft | 410 kts | 242° |
| 2026-05-07 20:04 | 43.34603 | -0.14625 | 33940 ft | 411 kts | 242° |
| 2026-05-07 20:04 | 43.31942 | -0.21579 | 33945 ft | 411 kts | 242° |
| 2026-05-07 20:05 | 43.29278 | -0.28525 | 33938 ft | 411 kts | 242° |
| 2026-05-07 20:05 | 43.26609 | -0.35468 | 33942 ft | 411 kts | 242° |
| 2026-05-07 20:06 | 43.23938 | -0.42396 | 33949 ft | 411 kts | 242° |
| 2026-05-07 20:06 | 43.21278 | -0.49282 | 33941 ft | 411 kts | 242° |
| 2026-05-07 20:07 | 43.18599 | -0.56199 | 33956 ft | 410 kts | 242° |
| 2026-05-07 20:07 | 43.15919 | -0.63100 | 33955 ft | 410 kts | 242° |
| 2026-05-07 20:08 | 43.13245 | -0.69972 | 33561 ft | 405 kts | 242° |
| 2026-05-07 20:08 | 43.11929 | -0.73347 | 33109 ft | 400 kts | 242° |
| 2026-05-07 20:08 | 43.10625 | -0.76687 | 32636 ft | 396 kts | 242° |
| 2026-05-07 20:09 | 43.09330 | -0.79999 | 32098 ft | 394 kts | 242° |
| 2026-05-07 20:09 | 43.08041 | -0.83292 | 31728 ft | 390 kts | 242° |
| 2026-05-07 20:09 | 43.06778 | -0.86517 | 31368 ft | 388 kts | 242° |
| 2026-05-07 20:10 | 43.04246 | -0.92971 | 30450 ft | 382 kts | 241° |
| 2026-05-07 20:10 | 43.02996 | -0.96153 | 29995 ft | 378 kts | 241° |
| 2026-05-07 20:10 | 43.01755 | -0.99306 | 29498 ft | 375 kts | 241° |
| 2026-05-07 20:10 | 43.00524 | -1.02433 | 29031 ft | 370 kts | 241° |
| 2026-05-07 20:11 | 42.99310 | -1.05513 | 28544 ft | 367 kts | 241° |
| 2026-05-07 20:11 | 42.98094 | -1.08582 | 28018 ft | 365 kts | 240° |
| 2026-05-07 20:11 | 42.96904 | -1.11579 | 27532 ft | 362 kts | 240° |
| 2026-05-07 20:11 | 42.95702 | -1.14600 | 27051 ft | 360 kts | 240° |
| 2026-05-07 20:12 | 42.94513 | -1.17586 | 26611 ft | 357 kts | 240° |
| 2026-05-07 20:12 | 42.93331 | -1.20551 | 26139 ft | 355 kts | 240° |
| 2026-05-07 20:12 | 42.92154 | -1.23504 | 25702 ft | 352 kts | 240° |
| 2026-05-07 20:12 | 42.90985 | -1.26434 | 25243 ft | 350 kts | 240° |
| 2026-05-07 20:13 | 42.89822 | -1.29343 | 24829 ft | 348 kts | 240° |
| 2026-05-07 20:13 | 42.88666 | -1.32235 | 24405 ft | 346 kts | 240° |
| 2026-05-07 20:13 | 42.87517 | -1.35106 | 23989 ft | 344 kts | 240° |
| 2026-05-07 20:13 | 42.86484 | -1.37685 | 23629 ft | 342 kts | 240° |
| 2026-05-07 20:14 | 42.85345 | -1.40524 | 23166 ft | 340 kts | 240° |
| 2026-05-07 20:14 | 42.84212 | -1.43345 | 22676 ft | 338 kts | 240° |
| 2026-05-07 20:14 | 42.83099 | -1.46112 | 22204 ft | 337 kts | 240° |
| 2026-05-07 20:14 | 42.81976 | -1.48902 | 21727 ft | 335 kts | 240° |
| 2026-05-07 20:15 | 42.80861 | -1.51673 | 21454 ft | 333 kts | 240° |
| 2026-05-07 20:15 | 42.79744 | -1.54444 | 21123 ft | 333 kts | 240° |
| 2026-05-07 20:15 | 42.78630 | -1.57205 | 20704 ft | 333 kts | 240° |
| 2026-05-07 20:15 | 42.77515 | -1.59966 | 20206 ft | 332 kts | 240° |
| 2026-05-07 20:16 | 42.76402 | -1.62720 | 19728 ft | 331 kts | 240° |
| 2026-05-07 20:16 | 42.75351 | -1.65488 | 19323 ft | 328 kts | 246° |
| 2026-05-07 20:16 | 42.74729 | -1.68457 | 18960 ft | 327 kts | 261° |
| 2026-05-07 20:16 | 42.74740 | -1.71540 | 18602 ft | 328 kts | 278° |
| 2026-05-07 20:17 | 42.75448 | -1.74495 | 18251 ft | 330 kts | 292° |
| 2026-05-07 20:17 | 42.76496 | -1.77274 | 17832 ft | 331 kts | 298° |
| 2026-05-07 20:17 | 42.77704 | -1.79940 | 17395 ft | 331 kts | 301° |
| 2026-05-07 20:17 | 42.78976 | -1.82540 | 16951 ft | 329 kts | 302° |
| 2026-05-07 20:18 | 42.80258 | -1.85107 | 16508 ft | 327 kts | 302° |
| 2026-05-07 20:18 | 42.81508 | -1.87630 | 16064 ft | 324 kts | 302° |
| 2026-05-07 20:18 | 42.82748 | -1.90178 | 15634 ft | 321 kts | 301° |
| 2026-05-07 20:18 | 42.83964 | -1.92721 | 15218 ft | 319 kts | 301° |
| 2026-05-07 20:19 | 42.85160 | -1.95261 | 14798 ft | 318 kts | 301° |
| 2026-05-07 20:19 | 42.86344 | -1.97793 | 14386 ft | 316 kts | 300° |
| 2026-05-07 20:19 | 42.87522 | -2.00315 | 13975 ft | 315 kts | 301° |
| 2026-05-07 20:19 | 42.88696 | -2.02830 | 13546 ft | 314 kts | 301° |
| 2026-05-07 20:20 | 42.89864 | -2.05336 | 13095 ft | 312 kts | 301° |
| 2026-05-07 20:20 | 42.91029 | -2.07832 | 12649 ft | 311 kts | 300° |
| 2026-05-07 20:20 | 42.92189 | -2.10319 | 12219 ft | 310 kts | 300° |
| 2026-05-07 20:20 | 42.93344 | -2.12798 | 11769 ft | 309 kts | 300° |
| 2026-05-07 20:21 | 42.94494 | -2.15271 | 11349 ft | 307 kts | 300° |
| 2026-05-07 20:21 | 42.95636 | -2.17725 | 10929 ft | 306 kts | 300° |
| 2026-05-07 20:21 | 42.96759 | -2.20141 | 10518 ft | 305 kts | 300° |
| 2026-05-07 20:21 | 42.97896 | -2.22572 | 10110 ft | 303 kts | 302° |
| 2026-05-07 20:22 | 42.99214 | -2.24819 | 9678 ft | 302 kts | 310° |
| 2026-05-07 20:22 | 43.00637 | -2.26900 | 9241 ft | 298 kts | 312° |
| 2026-05-07 20:22 | 43.02068 | -2.28935 | 8802 ft | 295 kts | 312° |
| 2026-05-07 20:22 | 43.03487 | -2.30951 | 8365 ft | 293 kts | 312° |
| 2026-05-07 20:23 | 43.04886 | -2.32943 | 8060 ft | 289 kts | 312° |
| 2026-05-07 20:23 | 43.06274 | -2.34925 | 7813 ft | 288 kts | 311° |
| 2026-05-07 20:23 | 43.07658 | -2.36904 | 7558 ft | 287 kts | 311° |
| 2026-05-07 20:23 | 43.09033 | -2.38875 | 7313 ft | 286 kts | 311° |
| 2026-05-07 20:24 | 43.10406 | -2.40846 | 7062 ft | 286 kts | 312° |
| 2026-05-07 20:24 | 43.11766 | -2.42793 | 6811 ft | 286 kts | 311° |
| 2026-05-07 20:24 | 43.12997 | -2.44907 | 6573 ft | 283 kts | 300° |
| 2026-05-07 20:24 | 43.13956 | -2.47252 | 6333 ft | 282 kts | 295° |
| 2026-05-07 20:25 | 43.14844 | -2.49634 | 6067 ft | 279 kts | 294° |
| 2026-05-07 20:25 | 43.15719 | -2.52001 | 5945 ft | 278 kts | 294° |
| 2026-05-07 20:25 | 43.16590 | -2.54371 | 5922 ft | 277 kts | 294° |
| 2026-05-07 20:25 | 43.17438 | -2.56639 | 5919 ft | 259 kts | 295° |
| 2026-05-07 20:26 | 43.18243 | -2.58766 | 5871 ft | 245 kts | 294° |
| 2026-05-07 20:26 | 43.19008 | -2.60826 | 5607 ft | 241 kts | 293° |
| 2026-05-07 20:26 | 43.19763 | -2.62893 | 5232 ft | 244 kts | 293° |
| 2026-05-07 20:26 | 43.20535 | -2.64991 | 4785 ft | 250 kts | 294° |
| 2026-05-07 20:27 | 43.21326 | -2.67138 | 4313 ft | 254 kts | 294° |
| 2026-05-07 20:27 | 43.22123 | -2.69310 | 3886 ft | 256 kts | 295° |
| 2026-05-07 20:27 | 43.22927 | -2.71494 | 3499 ft | 256 kts | 295° |
| 2026-05-07 20:27 | 43.23727 | -2.73670 | 3117 ft | 255 kts | 295° |
| 2026-05-07 20:28 | 43.24523 | -2.75837 | 2745 ft | 254 kts | 295° |
| 2026-05-07 20:28 | 43.25313 | -2.77993 | 2348 ft | 250 kts | 295° |
| 2026-05-07 20:28 | 43.26083 | -2.80087 | 1980 ft | 242 kts | 296° |
| 2026-05-07 20:28 | 43.26830 | -2.82118 | 1643 ft | 235 kts | 296° |
| 2026-05-07 20:29 | 43.27543 | -2.84062 | 1271 ft | 224 kts | 296° |
| 2026-05-07 20:29 | 43.28218 | -2.85903 | 938 ft | 207 kts | 296° |
| 2026-05-07 20:29 | 43.28841 | -2.87600 | 637 ft | 191 kts | 296° |
| 2026-05-07 20:29 | 43.29417 | -2.89169 | 362 ft | 176 kts | 296° |
| 2026-05-07 20:30 | 43.29944 | -2.90608 | 133 ft | 159 kts | 296° |
| 2026-05-07 20:30 | 43.30349 | -2.91716 | 130 ft | 100 kts | 296° |
| 2026-05-07 20:30 | 43.30583 | -2.92350 | 129 ft | 48 kts | 297° |
| 2026-05-07 20:30 | 43.30699 | -2.92479 | 126 ft | 1 kts | 339° |
| 2026-05-07 20:31 | 43.30700 | -2.92479 | 126 ft | 0 kts | 339° |
| 2026-05-07 20:31 | 43.30718 | -2.92489 | 127 ft | 8 kts | 339° |
| 2026-05-07 20:31 | 43.30796 | -2.92488 | 129 ft | 9 kts | 48° |
| 2026-05-07 20:31 | 43.30794 | -2.92423 | 129 ft | 10 kts | 111° |
| 2026-05-07 20:32 | 43.30764 | -2.92334 | 127 ft | 11 kts | 116° |
| 2026-05-07 20:32 | 43.30730 | -2.92241 | 130 ft | 11 kts | 116° |
| 2026-05-07 20:32 | 43.30693 | -2.92142 | 131 ft | 12 kts | 116° |
| 2026-05-07 20:32 | 43.30654 | -2.92034 | 131 ft | 13 kts | 116° |
| 2026-05-07 20:33 | 43.30611 | -2.91917 | 130 ft | 16 kts | 117° |
| 2026-05-07 20:33 | 43.30551 | -2.91754 | 126 ft | 22 kts | 117° |
| 2026-05-07 20:33 | 43.30473 | -2.91542 | 129 ft | 27 kts | 117° |
| 2026-05-07 20:33 | 43.30387 | -2.91306 | 128 ft | 28 kts | 117° |
| 2026-05-07 20:34 | 43.30318 | -2.91121 | 128 ft | 13 kts | 117° |
| 2026-05-07 20:34 | 43.30336 | -2.91018 | 130 ft | 12 kts | 36° |
| 2026-05-07 20:34 | 43.30399 | -2.90950 | 130 ft | 10 kts | 75° |
| 2026-05-07 20:34 | 43.30407 | -2.90873 | 130 ft | 6 kts | 72° |
| 2026-05-07 20:35 | 43.30437 | -2.90837 | 128 ft | 6 kts | 29° |
| 2026-05-07 20:35 | 43.30474 | -2.90811 | 128 ft | 3 kts | 27° |
| 2026-05-07 20:35 | 43.30478 | -2.90808 | 128 ft | 0 kts | 28° |